createdAt,value
2023-01-17T00:03:15.673Z,9.00
2023-01-17T00:07:43.279Z,7.05
2023-01-17T00:11:47.864Z,8.00
2023-01-17T00:15:52.491Z,7.15
2023-01-17T00:20:13.510Z,7.88
2023-01-17T00:24:33.660Z,7.85
2023-01-17T00:28:37.104Z,7.68
2023-01-17T00:32:39.765Z,8.93
2023-01-17T00:36:41.593Z,8.48
2023-01-17T00:40:46.529Z,7.63
2023-01-17T00:45:06.481Z,7.03
2023-01-17T00:49:28.721Z,8.75
2023-01-17T00:53:49.413Z,8.13
2023-01-17T00:58:09.606Z,7.55
2023-01-17T01:02:30.376Z,6.38
2023-01-17T01:06:51.828Z,9.07
2023-01-17T01:11:12.498Z,9.50
2023-01-17T01:15:32.765Z,9.15
2023-01-17T01:19:53.378Z,8.00
2023-01-17T01:24:14.634Z,8.88
2023-01-17T01:28:35.234Z,8.38
2023-01-17T01:32:55.965Z,9.73
2023-01-17T01:36:59.175Z,11.00
2023-01-17T01:41:03.958Z,7.47
2023-01-17T01:45:18.437Z,8.40
2023-01-17T01:49:25.335Z,9.30
2023-01-17T01:53:30.318Z,5.13
2023-01-17T01:57:39.736Z,8.27
2023-01-17T02:01:43.003Z,11.45
2023-01-17T02:05:48.873Z,7.22
2023-01-17T02:09:55.614Z,9.43
2023-01-17T02:14:00.482Z,9.23
2023-01-17T02:18:15.380Z,9.35
2023-01-17T02:22:58.373Z,8.93
2023-01-17T02:27:17.851Z,8.85
2023-01-17T02:31:28.408Z,9.45
2023-01-17T02:35:40.057Z,10.85
2023-01-17T02:39:50.403Z,8.88
2023-01-17T02:43:55.314Z,9.30
2023-01-17T02:48:00.169Z,11.18
2023-01-17T02:52:22.831Z,9.85
2023-01-17T02:56:40.019Z,7.22
2023-01-17T03:00:59.388Z,8.55
2023-01-17T03:05:09.421Z,10.93
2023-01-17T03:13:15.929Z,10.32
2023-01-17T03:17:19.302Z,10.05
2023-01-17T03:21:24.242Z,8.50
2023-01-17T03:25:27.497Z,11.02
2023-01-17T03:29:30.809Z,10.35
2023-01-17T03:33:33.987Z,9.50
2023-01-17T03:37:38.528Z,10.50
2023-01-17T03:41:41.619Z,10.27
2023-01-17T03:45:45.145Z,10.32
2023-01-17T03:49:47.996Z,7.28
2023-01-17T03:53:53.025Z,9.35
2023-01-17T03:57:56.593Z,9.23
2023-01-17T04:02:00.709Z,7.80
2023-01-17T04:06:03.934Z,9.02
2023-01-17T04:10:09.457Z,9.90
2023-01-17T04:14:12.471Z,9.45
2023-01-17T04:18:16.071Z,7.82
2023-01-17T04:22:19.228Z,9.50
2023-01-17T04:26:23.969Z,8.95
2023-01-17T04:30:27.776Z,6.65
2023-01-17T04:34:32.851Z,9.95
2023-01-17T04:38:36.635Z,9.68
2023-01-17T04:42:41.236Z,8.50
2023-01-17T04:46:45.066Z,10.23
2023-01-17T04:54:50.891Z,9.32
2023-01-17T04:58:57.770Z,9.30
2023-01-17T05:03:01.193Z,8.57
2023-01-17T05:11:08.066Z,8.75
2023-01-17T05:15:12.938Z,6.38
2023-01-17T05:19:17.000Z,8.35
2023-01-17T05:23:20.241Z,9.38
2023-01-17T05:27:23.415Z,8.98
2023-01-17T05:31:27.954Z,8.95
2023-01-17T05:35:34.098Z,8.15
2023-01-17T05:39:37.247Z,8.88
2023-01-17T05:43:40.399Z,7.88
2023-01-17T05:47:45.167Z,8.30
2023-01-17T05:51:48.208Z,8.00
2023-01-17T05:55:51.391Z,7.95
2023-01-17T05:59:54.392Z,7.30
2023-01-17T06:03:58.775Z,9.02
2023-01-17T06:08:04.974Z,8.15
2023-01-17T06:12:07.967Z,7.13
2023-01-17T06:16:11.072Z,6.85
2023-01-17T06:20:15.528Z,6.78
2023-01-17T06:24:18.695Z,6.93
2023-01-17T06:28:24.054Z,6.15
2023-01-17T06:32:27.299Z,8.23
2023-01-17T06:36:32.626Z,7.07
2023-01-17T06:40:35.868Z,8.63
2023-01-17T06:44:38.979Z,7.35
2023-01-17T06:48:43.829Z,7.13
2023-01-17T06:52:56.568Z,7.35
2023-01-17T06:57:00.176Z,7.45
2023-01-17T07:01:08.324Z,8.55
2023-01-17T07:05:13.880Z,8.52
2023-01-17T07:09:18.565Z,6.18
2023-01-17T07:13:22.814Z,6.70
2023-01-17T07:17:25.751Z,7.63
2023-01-17T07:21:29.116Z,7.53
2023-01-17T07:25:33.825Z,6.63
2023-01-17T07:29:36.836Z,5.32
2023-01-17T07:33:39.593Z,7.20
2023-01-17T07:37:49.126Z,8.43
2023-01-17T07:41:53.701Z,8.18
2023-01-17T07:45:56.763Z,8.40
2023-01-17T07:50:01.767Z,8.57
2023-01-17T07:54:04.897Z,7.65
2023-01-17T07:58:11.471Z,6.85
2023-01-17T08:02:19.105Z,7.00
2023-01-17T08:06:24.699Z,5.90
2023-01-17T08:10:27.582Z,5.43
2023-01-17T08:14:32.302Z,6.97
2023-01-17T08:18:35.590Z,7.03
2023-01-17T08:22:38.474Z,6.70
2023-01-17T08:26:41.846Z,7.70
2023-01-17T08:34:48.962Z,7.03
2023-01-17T08:38:53.027Z,7.60
2023-01-17T08:42:56.404Z,7.35
2023-01-17T08:51:04.620Z,4.53
2023-01-17T08:55:10.508Z,7.15
2023-01-17T08:59:13.737Z,7.57
2023-01-17T09:03:18.368Z,8.15
2023-01-17T09:07:22.398Z,7.95
2023-01-17T09:11:25.785Z,6.85
2023-01-17T09:15:29.204Z,7.95
2023-01-17T09:19:33.490Z,7.03
2023-01-17T09:23:37.739Z,6.70
2023-01-17T09:27:41.177Z,6.55
2023-01-17T09:31:44.160Z,4.95
2023-01-17T09:35:48.649Z,6.53
2023-01-17T09:39:51.772Z,7.78
2023-01-17T09:44:00.881Z,6.38
2023-01-17T09:48:14.208Z,6.20
2023-01-17T09:52:24.072Z,6.03
2023-01-17T09:56:33.006Z,4.95
2023-01-17T10:00:51.993Z,6.63
2023-01-17T10:05:13.413Z,6.78
2023-01-17T10:09:53.735Z,4.95
2023-01-17T10:14:04.731Z,6.28
2023-01-17T10:18:33.833Z,6.28
2023-01-17T10:22:52.183Z,7.15
2023-01-17T10:26:58.913Z,5.40
2023-01-17T10:31:05.640Z,7.93
2023-01-17T10:35:21.724Z,6.40
2023-01-17T10:39:26.223Z,7.45
2023-01-17T10:43:41.714Z,8.40
2023-01-17T10:47:49.925Z,8.40
2023-01-17T10:52:17.436Z,6.85
2023-01-17T10:56:27.405Z,6.72
2023-01-17T11:00:47.814Z,6.35
2023-01-17T11:04:54.799Z,6.28
2023-01-17T11:09:00.252Z,6.43
2023-01-17T11:13:05.571Z,5.82
2023-01-17T11:17:12.549Z,6.30
2023-01-17T11:21:21.001Z,6.13
2023-01-17T11:25:34.115Z,6.50
2023-01-17T11:29:39.960Z,6.15
2023-01-17T11:33:53.990Z,7.20
2023-01-17T11:38:06.708Z,6.53
2023-01-17T11:42:34.346Z,6.45
2023-01-17T11:46:39.219Z,7.90
2023-01-17T11:50:48.696Z,7.10
2023-01-17T11:54:52.731Z,6.45
2023-01-17T11:59:15.360Z,6.50
2023-01-17T12:03:32.870Z,6.18
2023-01-17T12:07:46.110Z,7.35
2023-01-17T12:12:12.099Z,6.95
2023-01-17T12:16:33.133Z,7.30
2023-01-17T12:20:49.185Z,6.25
2023-01-17T12:25:15.138Z,7.72
2023-01-17T12:29:49.964Z,7.85
2023-01-17T12:33:58.667Z,8.63
2023-01-17T12:38:07.622Z,8.05
2023-01-17T12:42:19.847Z,4.70
2023-01-17T12:46:28.823Z,6.75
2023-01-17T12:50:37.748Z,8.35
2023-01-17T12:54:44.352Z,7.90
2023-01-17T12:58:53.361Z,6.47
2023-01-17T13:03:00.807Z,5.68
2023-01-17T13:07:11.453Z,6.88
2023-01-17T13:11:23.492Z,6.78
2023-01-17T13:15:32.396Z,8.68
2023-01-17T13:19:46.889Z,7.95
2023-01-17T13:24:12.454Z,7.20
2023-01-17T13:28:24.010Z,6.68
2023-01-17T13:32:45.129Z,6.53
2023-01-17T13:37:01.860Z,6.95
2023-01-17T13:41:17.463Z,7.85
2023-01-17T13:45:23.035Z,6.47
2023-01-17T13:49:37.058Z,6.78
2023-01-17T13:54:00.322Z,7.22
2023-01-17T13:58:03.447Z,7.05
2023-01-17T14:02:37.552Z,6.65
2023-01-17T14:06:45.613Z,6.72
2023-01-17T14:10:50.661Z,7.53
2023-01-17T14:14:57.153Z,4.95
2023-01-17T14:19:01.854Z,8.18
2023-01-17T14:23:30.653Z,7.28
2023-01-17T14:27:36.989Z,6.90
2023-01-17T14:31:42.034Z,8.63
2023-01-17T14:35:52.844Z,8.27
2023-01-17T14:39:56.764Z,8.18
2023-01-17T14:44:04.137Z,9.23
2023-01-17T14:48:08.911Z,7.32
2023-01-17T14:52:17.684Z,7.55
2023-01-17T14:56:21.870Z,8.00
2023-01-17T15:00:29.459Z,8.23
2023-01-17T15:04:39.914Z,9.68
2023-01-17T15:08:43.566Z,11.73
2023-01-17T15:12:48.021Z,19.42
2023-01-17T15:16:52.302Z,9.50
2023-01-17T15:21:00.358Z,18.13
2023-01-17T15:25:04.475Z,11.80
2023-01-17T15:29:15.998Z,12.00
2023-01-17T15:33:21.318Z,13.57
2023-01-17T15:37:32.843Z,10.50
2023-01-17T15:41:39.457Z,10.32
2023-01-17T15:45:57.169Z,9.38
2023-01-17T15:50:02.966Z,10.73
2023-01-17T15:54:41.898Z,10.60
2023-01-17T15:58:45.294Z,12.15
2023-01-17T16:02:55.452Z,12.80
2023-01-17T16:11:14.497Z,12.32
2023-01-17T16:15:18.570Z,12.23
2023-01-17T16:19:23.385Z,12.05
2023-01-17T16:23:26.646Z,12.23
2023-01-17T16:27:32.514Z,11.80
2023-01-17T16:31:39.051Z,11.07
2023-01-17T16:35:44.149Z,11.80
2023-01-17T16:39:47.287Z,11.38
2023-01-17T16:43:59.477Z,12.85
2023-01-17T16:48:06.874Z,11.40
2023-01-17T16:52:12.110Z,10.93
2023-01-17T16:56:18.396Z,12.23
2023-01-17T17:00:22.916Z,13.65
2023-01-17T17:04:26.034Z,14.63
2023-01-17T17:08:30.966Z,13.25
2023-01-17T17:12:34.452Z,16.92
2023-01-17T17:16:39.245Z,16.98
2023-01-17T17:20:42.870Z,14.93
2023-01-17T17:24:47.501Z,14.73
2023-01-17T17:28:53.183Z,18.17
2023-01-17T17:32:56.190Z,16.38
2023-01-17T17:36:59.343Z,16.77
2023-01-17T17:41:11.099Z,15.90
2023-01-17T17:45:14.488Z,16.85
2023-01-17T17:49:18.262Z,17.00
2023-01-17T17:53:26.335Z,16.75
2023-01-17T17:57:33.482Z,13.68
2023-01-17T18:01:38.441Z,17.38
2023-01-17T18:05:41.899Z,18.02
2023-01-17T18:09:45.436Z,16.83
2023-01-17T18:13:51.597Z,16.13
2023-01-17T18:17:55.728Z,15.88
2023-01-17T18:22:00.047Z,17.15
2023-01-17T18:26:03.279Z,15.88
2023-01-17T18:30:08.912Z,16.92
2023-01-17T18:34:15.482Z,17.63
2023-01-17T18:38:18.953Z,20.52
2023-01-17T18:42:23.441Z,20.48
2023-01-17T18:46:31.883Z,21.48
2023-01-17T18:50:34.655Z,21.20
2023-01-17T18:54:38.072Z,28.77
2023-01-17T18:58:43.367Z,24.58
2023-01-17T19:02:50.211Z,26.77
2023-01-17T19:06:57.274Z,24.00
2023-01-17T19:11:01.096Z,21.85
2023-01-17T19:15:09.506Z,21.73
2023-01-17T19:19:15.968Z,22.27
2023-01-17T19:23:19.055Z,23.15
2023-01-17T19:27:22.249Z,26.40
2023-01-17T19:31:27.318Z,22.08
2023-01-17T19:35:32.114Z,24.15
2023-01-17T19:39:35.666Z,24.10
2023-01-17T19:43:38.536Z,23.88
2023-01-17T19:47:41.977Z,24.02
2023-01-17T19:51:46.879Z,24.00
2023-01-17T19:55:50.041Z,24.38
2023-01-17T19:59:52.710Z,25.40
2023-01-17T20:03:57.740Z,25.73
2023-01-17T20:08:02.287Z,25.48
2023-01-17T20:12:05.510Z,23.98
2023-01-17T20:16:10.593Z,21.73
2023-01-17T20:20:16.375Z,22.77
2023-01-17T20:24:20.742Z,21.65
2023-01-17T20:28:23.827Z,23.02
2023-01-17T20:32:26.845Z,21.80
2023-01-17T20:36:31.841Z,21.40
2023-01-17T20:44:40.119Z,19.40
2023-01-17T20:48:47.658Z,20.55
2023-01-17T20:52:50.643Z,22.38
2023-01-17T20:56:55.739Z,23.73
2023-01-17T21:00:59.840Z,21.35
2023-01-17T21:05:03.992Z,23.50
2023-01-17T21:09:09.096Z,25.35
2023-01-17T21:13:13.584Z,24.85
2023-01-17T21:17:17.569Z,27.55
2023-01-17T21:21:23.353Z,24.27
2023-01-17T21:25:26.397Z,24.45
2023-01-17T21:29:32.864Z,23.60
2023-01-17T21:33:36.323Z,22.35
2023-01-17T21:37:41.315Z,23.08
2023-01-17T21:41:48.040Z,22.27
2023-01-17T21:45:55.142Z,23.70
2023-01-17T21:50:01.189Z,28.00
2023-01-17T21:54:04.297Z,23.50
2023-01-17T21:58:31.308Z,23.65
2023-01-17T22:02:36.119Z,23.33
2023-01-17T22:06:41.019Z,24.58
2023-01-17T22:10:48.077Z,25.48
2023-01-17T22:14:52.075Z,22.65
2023-01-17T22:18:56.527Z,23.27
2023-01-17T22:22:59.778Z,23.88
2023-01-17T22:27:03.195Z,29.25
2023-01-17T22:31:13.160Z,28.75
2023-01-17T22:35:18.438Z,24.02
2023-01-17T22:39:26.325Z,29.40
2023-01-17T22:43:29.594Z,26.15
2023-01-17T22:47:33.312Z,28.13
2023-01-17T22:55:41.585Z,21.60
2023-01-17T22:59:44.904Z,25.77
2023-01-17T23:03:52.497Z,25.05
2023-01-17T23:07:57.312Z,25.98
2023-01-17T23:12:00.480Z,27.65
2023-01-17T23:16:24.005Z,24.50
2023-01-17T23:20:26.781Z,24.42
2023-01-17T23:24:31.464Z,25.20
2023-01-17T23:28:34.239Z,24.40
2023-01-17T23:32:37.746Z,25.45
2023-01-17T23:36:40.686Z,22.08
2023-01-17T23:41:07.250Z,25.17
2023-01-17T23:45:11.491Z,23.40
2023-01-17T23:49:14.699Z,23.85
2023-01-17T23:53:23.419Z,27.52
2023-01-17T23:57:28.018Z,28.25
